Anch, Alaska
Current Conditions -  °F | °C
As of 2:58 PM on Monday 24 Nov 2014 (Local Time) from PAED Reporting Station
Clear Clear  
Wind Chill: 27°   Ceiling: Unl
Heat Index: 31°   Visibility: 10mi
Dew Point: 22°   Wind: 5mph
Humidity: 68%   Direction: 70°ENE
Pressure: 29.75"   Gusts: NA
Location:  61.2265°N, 149.62°W
Report Text: PAED 242358Z AUTO 07004KT 10SM CLR 00/M06 A2975 RMK AO2 SLP072 T10041057 10003 21043 52010 $
Loading
Personal Weather Stations






























Interactive Weather Map New forecast layout! Learn more

10-Day Weather Forecast

Advertisements
Track Severe Weather on mobile